Track Рязанова Олеся

Time Latitude Longitude Accuracy (66% radius in meters) Altitude (meters) Speed (km/hour) Bearing (degrees) Battery (%) GPS flag
08:38:08 60.370960 29.556344 4 70 0 150.29124450684 43 1 delete
08:37:56 60.370971 29.556352 6 78 0 150.29124450684 43 1 delete
08:37:43 60.370989 29.556337 6 86 0 150.29124450684 43 1 delete
08:37:39 60.370979 29.556373 6 89 0 150.29124450684 43 1 delete
08:37:31 60.370966 29.556448 6 72 0 150.29124450684 43 1 delete
08:37:28 60.370965 29.556466 6 66 0 150.29124450684 43 1 delete
08:37:19 60.370924 29.556446 6 68 0 133.86680603027 43 1 delete
08:37:06 60.370933 29.556438 6 60 0 133.86680603027 43 1 delete
08:37:03 60.370927 29.556416 4 58 0 133.86680603027 43 1 delete
08:36:54 60.370927 29.556347 8 69 0 133.86680603027 43 1 delete
08:36:52 60.370932 29.556324 8 71 0 133.86680603027 43 1 delete
08:36:41 60.370908 29.556243 8 67 0 296.61196899414 43 1 delete
08:36:31 60.370916 29.556237 12 67 0 146.89520263672 43 1 delete
08:36:28 60.370938 29.556219 8 73 0.40512144565582 149.96479797363 43 1 delete
08:36:16 60.370962 29.556191 6 103 0 149.14767456055 43 1 delete
08:36:10 60.370937 29.556152 8 87 0 95.576835632324 43 1 delete
08:36:05 60.370886 29.556164 6 76 0 95.576835632324 43 1 delete
08:36:01 60.370852 29.556171 6 73 0 95.576835632324 43 1 delete
08:35:58 60.370841 29.556187 8 76 0 95.576835632324 43 1 delete
08:35:52 60.370823 29.556277 8 74 0 95.576835632324 43 1 delete
08:35:48 60.370815 29.556320 6 73 0 95.576835632324 43 1 delete
08:35:38 60.370800 29.556362 6 78 0 178.14294433594 43 1 delete
08:35:34 60.370820 29.556319 8 83 0 178.14294433594 43 1 delete
08:35:32 60.370837 29.556306 8 86 0 178.14294433594 43 1 delete
08:35:27 60.370885 29.556352 8 85 0 178.14294433594 43 1 delete
08:35:20 60.370903 29.556405 6 80 0 178.14294433594 43 1 delete
08:35:08 60.370946 29.556355 8 84 0 334.55996704102 43 1 delete
08:34:54 60.370906 29.556356 6 81 0.28057610988617 9.5753650665283 43 1 delete
08:34:40 60.370931 29.556384 4 86 0 109.93214416504 43 1 delete
08:34:39 60.370933 29.556380 12 85 0 109.93214416504 43 1 delete
08:34:31 60.370952 29.556293 6 91 0 109.93214416504 43 1 delete
08:34:28 60.370955 29.556249 6 92 0 109.93214416504 43 1 delete
08:34:19 60.370940 29.556195 6 83 0 130.64091491699 43 1 delete
08:34:13 60.370977 29.556162 6 85 0 130.64091491699 43 1 delete
08:34:12 60.370985 29.556170 6 87 0 130.64091491699 43 1 delete
08:34:03 60.370999 29.556261 4 85 0 95.880706787109 43 1 delete
08:34:00 60.371000 29.556282 6 80 0 95.880706787109 43 1 delete
08:33:47 60.370989 29.556342 6 75 0 95.880706787109 43 1 delete
08:33:34 60.370997 29.556347 6 73 0 176.7494354248 43 1 delete
08:33:20 60.371016 29.556341 6 71 0 176.7494354248 43 1 delete
08:33:08 60.371023 29.556350 8 71 0 119.61827087402 43 1 delete
08:32:57 60.371016 29.556346 8 67 0 319.39468383789 43 1 delete
08:32:55 60.371008 29.556347 6 66 0 319.39468383789 43 1 delete
08:32:41 60.370958 29.556397 8 83 0 143.56631469727 43 1 delete
08:32:27 60.370948 29.556403 6 82 0 143.56631469727 43 1 delete
08:32:14 60.370943 29.556344 8 71 0 185.72358703613 43 1 delete
08:32:00 60.370957 29.556311 12 65 0 330.11618041992 43 1 delete
08:31:48 60.370988 29.556333 8 68 0 231.37091064453 43 1 delete
08:31:39 60.370972 29.556378 8 78 0 104.89015197754 43 1 delete
08:31:35 60.370950 29.556344 8 78 0 144.89981079102 43 1 delete